Time;durP1;ratioP1;P1;durP2;ratioP2;P2;SDS_P1;SDS_P2;PMS_P1;PMS_P2;Temp;Humidity;BMP_temperature;BMP_pressure;BME280_temperature;BME280_humidity;BME280_pressure;Samples;Min_cycle;Max_cycle;Signal;HPM_P1;HPM_P2
2021/07/08 00:00:27;;;;;;;30.80;24.20;;;;;;;24.00;74.40;100989.06;1656560;84;27710;-77
2021/07/08 00:02:55;;;;;;;32.78;24.57;;;;;;;24.00;74.67;100987.16;1680413;84;25786;-77
2021/07/08 00:05:25;;;;;;;32.48;26.02;;;;;;;23.99;74.88;100990.17;1654279;84;26501;-77
2021/07/08 00:07:53;;;;;;;30.88;25.77;;;;;;;23.99;74.81;100991.00;1676084;84;26246;-77
2021/07/08 00:10:27;;;;;;;35.80;27.27;;;;;;;24.04;74.95;100993.78;1654709;84;25962;-77
2021/07/08 00:12:56;;;;;;;41.75;27.45;;;;;;;24.09;74.99;100993.81;1666209;85;28238;-77
2021/07/08 00:15:23;;;;;;;32.85;27.00;;;;;;;24.11;74.90;100993.00;1670404;84;25955;-77
2021/07/08 00:17:51;;;;;;;32.00;26.55;;;;;;;24.13;75.04;100994.09;1674644;84;26416;-77
2021/07/08 00:20:21;;;;;;;32.48;26.77;;;;;;;24.14;75.08;100989.75;1673398;84;26223;-76
2021/07/08 00:22:49;;;;;;;32.73;28.05;;;;;;;24.14;74.95;100992.48;1661241;84;25581;-77
2021/07/08 00:25:24;;;;;;;34.13;28.17;;;;;;;24.15;75.07;100991.91;1652337;85;28124;-77
2021/07/08 00:27:52;;;;;;;35.38;27.60;;;;;;;24.18;75.11;101000.97;1663144;84;25885;-77
2021/07/08 00:30:19;;;;;;;35.38;29.48;;;;;;;24.16;75.14;101013.56;1640775;84;26631;-77
2021/07/08 00:32:50;;;;;;;31.77;25.25;;;;;;;24.17;75.28;101015.73;1659496;84;25838;-77
2021/07/08 00:35:17;;;;;;;26.73;20.43;;;;;;;24.17;75.41;101012.46;1656608;84;25806;-77
2021/07/08 00:37:44;;;;;;;23.18;18.92;;;;;;;24.16;75.41;101014.11;1688433;83;27471;-77
2021/07/08 00:40:14;;;;;;;19.17;14.35;;;;;;;24.11;75.39;101017.64;1662763;84;25820;-77
2021/07/08 00:42:41;;;;;;;15.13;12.98;;;;;;;24.08;75.50;101019.52;1669694;84;25864;-77
2021/07/08 00:45:13;;;;;;;14.80;13.00;;;;;;;24.03;75.60;101016.75;1661901;84;25758;-77
2021/07/08 00:47:40;;;;;;;11.78;10.35;;;;;;;24.03;75.58;101017.28;1690249;84;25822;-77
2021/07/08 00:50:10;;;;;;;10.00;9.03;;;;;;;23.99;75.56;101013.43;1643367;83;27636;-77
2021/07/08 00:52:38;;;;;;;12.65;8.38;;;;;;;23.92;75.13;101016.41;1683473;84;26378;-77
2021/07/08 00:55:07;;;;;;;9.70;7.10;;;;;;;23.87;75.07;101019.09;1648783;84;25943;-77
2021/07/08 00:57:35;;;;;;;8.80;6.92;;;;;;;23.85;75.00;101015.80;1678926;84;26576;-77
2021/07/08 01:00:05;;;;;;;9.40;6.67;;;;;;;23.79;74.67;101015.49;1643771;84;25863;-77
2021/07/08 01:02:32;;;;;;;10.82;7.25;;;;;;;23.76;74.49;101011.37;1653049;85;27533;-77
2021/07/08 01:05:00;;;;;;;9.00;7.17;;;;;;;23.70;74.47;101013.80;1654092;83;26010;-77
2021/07/08 01:07:27;;;;;;;14.23;8.48;;;;;;;23.67;74.51;101007.47;1681498;84;25859;-77
2021/07/08 01:09:54;;;;;;;12.75;7.90;;;;;;;23.64;74.54;101003.91;1638620;84;26506;-77
2021/07/08 01:12:21;;;;;;;10.63;7.08;;;;;;;23.62;74.61;101010.19;1655281;84;25933;-76
2021/07/08 01:14:48;;;;;;;10.75;6.97;;;;;;;23.61;74.58;101004.95;1674963;83;27557;-77
2021/07/08 01:17:15;;;;;;;10.55;7.00;;;;;;;23.59;74.59;101007.13;1672069;84;25932;-77
2021/07/08 01:19:42;;;;;;;10.82;7.85;;;;;;;23.58;74.52;101009.60;1634295;85;25389;-77
2021/07/08 01:22:10;;;;;;;16.15;7.28;;;;;;;23.53;74.56;101012.28;1652223;84;26063;-77
2021/07/08 01:24:38;;;;;;;16.30;8.13;;;;;;;23.47;74.80;101007.88;1620660;86;25993;-77
2021/07/08 01:27:07;;;;;;;12.68;7.50;;;;;;;23.45;74.93;101006.77;1662648;85;27488;-77
2021/07/08 01:29:35;;;;;;;13.65;8.98;;;;;;;23.46;74.93;101006.23;1619738;85;25884;-77
2021/07/08 01:32:03;;;;;;;17.65;9.93;;;;;;;23.45;74.97;101006.77;1677236;84;25807;-77
2021/07/08 01:34:30;;;;;;;13.32;9.75;;;;;;;23.44;75.24;101000.17;1622379;86;25998;-77
2021/07/08 01:36:57;;;;;;;25.72;14.70;;;;;;;23.40;75.31;101003.98;1630725;86;25367;-77
2021/07/08 01:39:24;;;;;;;22.17;13.75;;;;;;;23.38;75.68;101000.69;1655411;84;28314;-77
2021/07/08 01:41:51;;;;;;;30.80;15.53;;;;;;;23.31;75.78;101004.72;1610579;84;25944;-77
2021/07/08 01:44:18;;;;;;;17.52;11.65;;;;;;;23.25;75.97;101001.62;1652730;84;26036;-77
2021/07/08 01:46:45;;;;;;;20.08;14.68;;;;;;;23.24;76.29;101012.30;1684417;84;26487;-77
2021/07/08 01:49:13;;;;;;;19.92;14.03;;;;;;;23.23;76.33;101009.27;1635239;85;25806;-77
2021/07/08 01:51:40;;;;;;;19.40;13.83;;;;;;;23.24;76.70;101009.56;1662229;85;28139;-77
2021/07/08 01:54:08;;;;;;;23.52;15.45;;;;;;;23.22;76.83;101001.62;1651307;84;26553;-77
2021/07/08 01:56:37;;;;;;;25.25;16.93;;;;;;;23.22;76.76;101004.36;1651872;85;25790;-77
2021/07/08 01:59:05;;;;;;;22.00;16.12;;;;;;;23.20;77.21;101005.70;1646081;84;25820;-77
2021/07/08 02:01:32;;;;;;;23.10;17.87;;;;;;;23.17;77.37;101005.67;1628985;85;25821;-77
2021/07/08 02:03:59;;;;;;;30.68;18.77;;;;;;;23.17;77.47;101013.88;1656331;84;27524;-78
2021/07/08 02:06:28;;;;;;;35.73;21.10;;;;;;;23.16;77.54;101012.78;1681942;84;25781;-77
2021/07/08 02:08:56;;;;;;;33.85;19.85;;;;;;;23.16;77.88;101015.52;1619716;85;25856;-77
2021/07/08 02:11:23;;;;;;;31.10;20.37;;;;;;;23.16;77.84;101016.31;1653223;83;25836;-77
2021/07/08 02:13:51;;;;;;;40.33;25.25;;;;;;;23.17;78.05;101015.24;1636346;85;25966;-77
2021/07/08 02:16:18;;;;;;;45.70;28.07;;;;;;;23.18;78.28;101008.67;1685762;84;27426;-77
2021/07/08 02:18:47;;;;;;;51.92;29.98;;;;;;;23.19;78.56;101015.80;1637536;85;26379;-78
2021/07/08 02:21:14;;;;;;;52.62;30.15;;;;;;;23.21;78.56;101016.37;1678559;84;25919;-77
2021/07/08 02:23:41;;;;;;;55.70;29.85;;;;;;;23.24;78.79;101017.23;1651440;84;26045;-77
2021/07/08 02:26:09;;;;;;;64.42;33.08;;;;;;;23.24;78.59;101019.96;1670457;84;26580;-77
2021/07/08 02:28:38;;;;;;;54.00;31.35;;;;;;;23.26;78.73;101022.42;1642855;84;27521;-77
2021/07/08 02:31:06;;;;;;;51.77;30.48;;;;;;;23.29;78.94;101027.39;1658061;84;25811;-77
2021/07/08 02:33:34;;;;;;;53.40;31.93;;;;;;;23.25;79.07;101033.06;1651185;85;26233;-77
2021/07/08 02:36:01;;;;;;;58.45;33.48;;;;;;;23.19;79.00;101031.38;1684751;84;25724;-77
2021/07/08 02:38:28;;;;;;;53.95;33.15;;;;;;;23.16;79.05;101038.17;1658479;84;26095;-77
2021/07/08 02:40:55;;;;;;;50.43;33.08;;;;;;;23.17;79.72;101039.01;1672171;84;27552;-77
2021/07/08 02:43:23;;;;;;;51.42;33.05;;;;;;;23.11;79.32;101051.81;1622842;84;25990;-77
2021/07/08 02:45:50;;;;;;;46.83;31.60;;;;;;;23.08;79.65;101045.48;1682960;84;25748;-77
2021/07/08 02:48:20;;;;;;;52.25;31.57;;;;;;;23.06;79.63;101048.19;1644834;85;25826;-77
2021/07/08 02:50:51;;;;;;;51.48;32.42;;;;;;;23.03;79.61;101046.81;1644268;84;25830;-77
2021/07/08 02:53:19;;;;;;;54.40;33.23;;;;;;;23.01;79.87;101059.88;1632034;84;28213;-77
2021/07/08 02:55:47;;;;;;;48.68;31.05;;;;;;;23.02;80.02;101054.72;1684883;84;26047;-77
2021/07/08 02:58:14;;;;;;;53.08;32.17;;;;;;;23.02;79.92;101057.45;1648245;84;26223;-77
2021/07/08 03:00:41;;;;;;;56.85;32.95;;;;;;;23.06;80.12;101059.11;1660318;84;25888;-77
2021/07/08 03:03:08;;;;;;;57.53;33.53;;;;;;;23.03;80.25;101059.91;1655835;84;25989;-77
2021/07/08 03:05:35;;;;;;;56.80;34.80;;;;;;;23.03;80.13;101060.48;1709147;83;27544;-77
2021/07/08 03:08:03;;;;;;;57.65;34.33;;;;;;;23.07;80.14;101060.78;1672930;83;25860;-77
2021/07/08 03:10:32;;;;;;;54.58;33.20;;;;;;;23.09;80.24;101066.28;1699387;83;25894;-77
2021/07/08 03:12:59;;;;;;;56.77;33.78;;;;;;;23.06;80.08;101077.70;1659712;84;25931;-77
2021/07/08 03:15:27;;;;;;;56.50;33.02;;;;;;;22.96;80.19;101080.34;1677944;84;25864;-77
2021/07/08 03:17:54;;;;;;;55.00;33.40;;;;;;;22.91;80.35;101077.54;1640678;84;27574;-77
2021/07/08 03:20:27;;;;;;;56.45;34.55;;;;;;;22.89;80.54;101075.61;1666340;84;26611;-77
2021/07/08 03:22:55;;;;;;;65.85;37.88;;;;;;;22.91;80.64;101081.64;1647348;84;25819;-77
2021/07/08 03:25:23;;;;;;;69.00;38.67;;;;;;;22.88;80.70;101077.50;1697279;83;26526;-77
2021/07/08 03:27:51;;;;;;;66.75;35.85;;;;;;;22.83;80.90;101074.73;1639732;84;25813;-77
2021/07/08 03:30:22;;;;;;;61.55;35.33;;;;;;;22.80;81.06;101079.33;1672640;84;28190;-77
2021/07/08 03:32:51;;;;;;;69.72;35.40;;;;;;;22.76;81.05;101076.83;1674970;84;25886;-77
2021/07/08 03:35:18;;;;;;;73.22;35.50;;;;;;;22.73;81.17;101080.05;1637326;84;25862;-77
2021/07/08 03:37:45;;;;;;;74.92;38.08;;;;;;;22.71;81.56;101078.13;1642475;84;25739;-77
2021/07/08 03:40:15;;;;;;;63.65;32.28;;;;;;;22.71;81.39;101083.58;1659940;84;25966;-77
2021/07/08 03:42:44;;;;;;;66.63;33.47;;;;;;;22.72;81.89;101080.32;1667581;84;27471;-77
2021/07/08 03:45:12;;;;;;;59.95;30.75;;;;;;;22.67;81.75;101077.52;1637262;84;25876;-77
2021/07/08 03:47:41;;;;;;;54.00;31.25;;;;;;;22.66;82.07;101080.81;1656478;84;25645;-77
2021/07/08 03:50:10;;;;;;;62.10;30.72;;;;;;;22.64;81.94;101079.41;1653677;84;25725;-77
2021/07/08 03:52:41;;;;;;;45.55;26.33;;;;;;;22.64;82.01;101075.31;1695501;83;25850;-77
2021/07/08 03:55:15;;;;;;;50.65;28.35;;;;;;;22.60;81.99;101081.00;1680168;84;28240;-77
2021/07/08 03:57:58;;;;;;;51.20;29.10;;;;;;;22.54;82.23;101084.16;1677731;84;25775;-77
2021/07/08 04:00:35;;;;;;;51.48;27.58;;;;;;;22.58;82.52;101085.30;1711525;83;25779;-77
2021/07/08 04:03:15;;;;;;;48.45;26.90;;;;;;;22.58;82.49;101088.03;1680237;84;26236;-77
2021/07/08 04:05:46;;;;;;;52.08;29.15;;;;;;;22.62;82.61;101091.13;1652619;84;25949;-77
2021/07/08 04:08:14;;;;;;;48.25;27.85;;;;;;;22.58;82.37;101090.76;1643676;83;28301;-77
2021/07/08 04:10:44;;;;;;;45.58;25.30;;;;;;;22.56;82.60;101097.58;1656630;84;25732;-77
2021/07/08 04:13:17;;;;;;;49.42;25.88;;;;;;;22.55;82.58;101091.81;1705573;83;25863;-77
2021/07/08 04:15:48;;;;;;;43.50;25.62;;;;;;;22.58;82.63;101092.69;1654776;81;26093;-77
2021/07/08 04:18:17;;;;;;;44.98;26.70;;;;;;;22.58;82.66;101101.68;1655656;84;25937;-77
2021/07/08 04:20:45;;;;;;;40.80;24.60;;;;;;;22.53;82.62;101092.61;1709833;83;27569;-77
2021/07/08 04:23:14;;;;;;;41.90;25.65;;;;;;;22.51;82.62;101090.14;1702967;83;25960;-77
2021/07/08 04:25:42;;;;;;;40.20;24.65;;;;;;;22.52;82.66;101093.14;1660691;83;26023;-77
2021/07/08 04:28:11;;;;;;;40.90;24.77;;;;;;;22.55;82.81;101091.81;1689713;83;26227;-77
2021/07/08 04:30:40;;;;;;;43.68;26.50;;;;;;;22.50;82.59;101099.39;1706022;83;25985;-77
2021/07/08 04:33:07;;;;;;;44.67;26.20;;;;;;;22.51;82.67;101101.59;1710272;83;27625;-77
2021/07/08 04:35:40;;;;;;;40.63;25.12;;;;;;;22.53;82.91;101097.54;1650499;83;25804;-77
2021/07/08 04:38:10;;;;;;;45.58;26.15;;;;;;;22.52;82.84;101095.88;1691584;83;26604;-77
2021/07/08 04:40:38;;;;;;;49.80;26.82;;;;;;;22.51;82.89;101094.23;1690076;83;25769;-77
2021/07/08 04:43:08;;;;;;;46.20;27.25;;;;;;;22.49;83.00;101091.47;1688280;83;25998;-77
2021/07/08 04:45:35;;;;;;;41.45;27.95;;;;;;;22.43;82.96;101091.95;1626247;84;28117;-77
2021/07/08 04:48:04;;;;;;;42.17;27.80;;;;;;;22.42;83.17;101096.28;1677776;84;25847;-77
2021/07/08 04:50:31;;;;;;;45.30;25.10;;;;;;;22.45;83.31;101094.42;1685000;83;25847;-77
2021/07/08 04:52:58;;;;;;;48.80;33.85;;;;;;;22.44;83.18;101099.05;1655113;84;25819;-77
2021/07/08 04:55:25;;;;;;;47.30;29.63;;;;;;;22.45;83.44;101097.15;1642748;84;25910;-77
2021/07/08 04:57:54;;;;;;;46.18;30.02;;;;;;;22.47;83.43;101102.66;1668792;83;28327;-77
2021/07/08 05:00:23;;;;;;;56.08;32.75;;;;;;;22.55;83.58;101108.20;1707365;83;25920;-76
2021/07/08 05:02:52;;;;;;;48.68;30.82;;;;;;;22.57;83.48;101105.51;1704076;83;25815;-77
2021/07/08 05:05:20;;;;;;;58.35;34.73;;;;;;;22.56;83.25;101098.37;1662682;83;25923;-77
2021/07/08 05:07:50;;;;;;;52.10;32.00;;;;;;;22.59;83.44;101103.38;1691335;83;25844;-77
2021/07/08 05:10:17;;;;;;;45.70;28.45;;;;;;;22.62;83.49;101106.98;1671938;85;27585;-77
2021/07/08 05:12:44;;;;;;;47.33;30.52;;;;;;;22.63;83.37;101107.25;1682823;83;25781;-77
2021/07/08 05:15:15;;;;;;;65.78;40.28;;;;;;;22.60;83.46;101106.41;1683941;83;25885;-77
2021/07/08 05:17:44;;;;;;;;;;;;;;;22.60;83.57;101109.67;1666162;83;26622;-77
2021/07/08 05:20:14;;;;;;;50.40;30.55;;;;;;;22.56;83.70;101117.49;1660888;84;25767;-77
2021/07/08 05:22:42;;;;;;;45.12;28.62;;;;;;;22.56;83.84;101122.95;1662713;84;27470;-77
2021/07/08 05:25:13;;;;;;;42.53;27.77;;;;;;;22.58;83.72;101123.52;1667364;83;25915;-77
2021/07/08 05:27:41;;;;;;;52.35;32.13;;;;;;;22.57;83.68;101127.34;1651090;84;25852;-77
2021/07/08 05:30:10;;;;;;;44.90;30.60;;;;;;;22.57;83.74;101130.61;1688777;83;25788;-76
2021/07/08 05:32:37;;;;;;;47.23;32.10;;;;;;;22.57;83.87;101127.88;1667140;83;25922;-77
2021/07/08 05:35:06;;;;;;;42.75;28.05;;;;;;;22.50;83.53;101128.59;1648004;83;27552;-77
2021/07/08 05:37:34;;;;;;;38.75;27.82;;;;;;;22.45;83.56;101129.91;1638663;83;26178;-77
2021/07/08 05:40:01;;;;;;;41.88;28.10;;;;;;;22.44;83.71;101129.08;1692619;83;25869;-77
2021/07/08 05:42:28;;;;;;;44.70;29.57;;;;;;;22.42;83.67;101131.23;1678331;83;26488;-77
2021/07/08 05:44:55;;;;;;;50.95;31.70;;;;;;;22.44;83.62;101132.34;1653259;83;25915;-76
2021/07/08 05:47:22;;;;;;;45.33;30.92;;;;;;;22.44;83.67;101135.07;1683013;83;27587;-77
2021/07/08 05:49:49;;;;;;;53.13;33.85;;;;;;;22.47;83.81;101134.58;1687825;83;25888;-77
2021/07/08 05:52:16;;;;;;;53.90;32.55;;;;;;;22.48;83.71;101137.58;1687665;83;25775;-77
2021/07/08 05:54:43;;;;;;;51.45;32.93;;;;;;;22.49;83.90;101137.35;1661266;84;26295;-77
2021/07/08 05:57:10;;;;;;;54.98;33.45;;;;;;;22.48;83.71;101141.14;1666371;84;25867;-77
2021/07/08 05:59:37;;;;;;;60.03;36.17;;;;;;;22.52;83.83;101144.22;1678329;84;27500;-77
2021/07/08 06:02:04;;;;;;;60.60;36.13;;;;;;;22.56;83.80;101146.16;1656133;83;26581;-77
2021/07/08 06:04:31;;;;;;;53.50;37.03;;;;;;;22.56;83.71;101146.73;1685782;83;25877;-77
2021/07/08 06:06:58;;;;;;;50.75;35.30;;;;;;;22.55;83.59;101149.16;1647874;84;26612;-77
2021/07/08 06:09:25;;;;;;;53.35;35.70;;;;;;;22.53;83.52;101145.85;1664584;84;26031;-77
2021/07/08 06:11:53;;;;;;;52.25;35.20;;;;;;;22.51;83.52;101158.94;1639295;84;27513;-77
2021/07/08 06:14:20;;;;;;;50.95;35.75;;;;;;;22.50;83.38;101161.36;1636715;84;25804;-76
2021/07/08 06:16:48;;;;;;;46.37;33.90;;;;;;;22.50;83.47;101164.09;1666214;84;36322;-77
2021/07/08 06:19:15;;;;;;;51.18;35.10;;;;;;;22.52;83.42;101164.69;1691700;83;26143;-77
2021/07/08 06:21:42;;;;;;;46.00;33.55;;;;;;;22.51;83.22;101171.22;1692151;83;25844;-77
2021/07/08 06:24:09;;;;;;;45.63;33.88;;;;;;;22.50;83.18;101172.28;1655942;84;27416;-77
2021/07/08 06:26:36;;;;;;;49.27;34.40;;;;;;;22.50;83.29;101176.37;1663560;84;25924;-77
2021/07/08 06:29:03;;;;;;;44.90;33.33;;;;;;;22.53;83.33;101176.72;1676681;84;26003;-77
2021/07/08 06:31:31;;;;;;;42.73;31.40;;;;;;;22.53;83.04;101176.72;1688558;83;25794;-77
2021/07/08 06:33:58;;;;;;;45.10;32.50;;;;;;;22.55;83.17;101175.09;1659325;83;25822;-77
2021/07/08 06:36:25;;;;;;;46.15;31.10;;;;;;;22.55;82.97;101187.38;1684817;83;27496;-77
2021/07/08 06:38:52;;;;;;;41.60;30.75;;;;;;;22.53;82.91;101184.08;1701815;83;26536;-77
2021/07/08 06:41:20;;;;;;;43.92;32.60;;;;;;;22.50;82.92;101189.50;1703899;83;25942;-77
2021/07/08 06:43:47;;;;;;;40.98;32.88;;;;;;;22.53;82.92;101193.10;1654158;83;25864;-77
2021/07/08 06:46:17;;;;;;;39.05;32.10;;;;;;;22.56;82.86;101193.14;1684791;83;25920;-77
2021/07/08 06:48:44;;;;;;;39.63;34.20;;;;;;;22.60;82.83;101194.33;1700000;83;27631;-77
2021/07/08 06:51:11;;;;;;;37.83;32.00;;;;;;;22.59;82.66;101193.49;1709234;83;25747;-77
2021/07/08 06:53:38;;;;;;;36.98;31.35;;;;;;;22.57;82.73;101194.25;1689207;83;25915;-77
2021/07/08 06:56:06;;;;;;;41.40;33.53;;;;;;;22.54;82.70;101199.40;1693655;83;25821;-77
2021/07/08 06:58:33;;;;;;;40.83;33.13;;;;;;;22.51;82.81;101195.27;1662610;83;25860;-77
2021/07/08 07:01:00;;;;;;;38.95;30.35;;;;;;;22.55;82.77;101192.31;1711508;83;27604;-76
2021/07/08 07:03:27;;;;;;;34.15;29.63;;;;;;;22.61;82.67;101195.96;1690730;83;25343;-77
2021/07/08 07:05:54;;;;;;;36.73;29.40;;;;;;;22.64;82.60;101193.58;1683938;83;25975;-76
2021/07/08 07:08:21;;;;;;;32.73;28.45;;;;;;;22.69;82.60;101200.45;1710910;83;26255;-77
2021/07/08 07:10:48;;;;;;;35.08;28.95;;;;;;;22.72;82.55;101199.96;1683361;83;25848;-77
2021/07/08 07:13:15;;;;;;;34.58;28.52;;;;;;;22.79;82.30;101197.88;1671720;83;27536;-77
2021/07/08 07:15:42;;;;;;;33.92;27.77;;;;;;;22.82;82.21;101205.56;1689077;83;25789;-77
2021/07/08 07:18:09;;;;;;;26.70;23.12;;;;;;;22.81;82.22;101198.45;1686515;83;25510;-77
2021/07/08 07:20:37;;;;;;;27.20;23.20;;;;;;;22.85;82.40;101196.03;1655221;84;25480;-77
2021/07/08 07:23:04;;;;;;;31.17;24.23;;;;;;;22.92;82.22;101204.31;1650702;84;25875;-77
2021/07/08 07:25:32;;;;;;;35.17;26.90;;;;;;;22.93;81.87;101211.45;1639279;85;27466;-77
2021/07/08 07:27:59;;;;;;;32.60;25.27;;;;;;;22.98;81.67;101206.06;1687588;84;25816;-77
2021/07/08 07:30:27;;;;;;;30.85;25.32;;;;;;;23.02;81.60;101207.73;1667813;83;25830;-77
2021/07/08 07:32:55;;;;;;;34.35;25.17;;;;;;;23.03;81.46;101207.47;1685257;83;26583;-76
2021/07/08 07:35:23;;;;;;;33.60;25.48;;;;;;;23.03;81.17;101211.30;1675965;83;25814;-77
2021/07/08 07:37:51;;;;;;;31.23;25.30;;;;;;;23.01;81.06;101220.56;1701203;83;27618;-77
2021/07/08 07:40:19;;;;;;;37.35;26.05;;;;;;;23.03;81.01;101223.87;1643438;84;26085;-77
2021/07/08 07:42:47;;;;;;;34.33;24.52;;;;;;;23.07;81.06;101220.11;1660688;84;25859;-78
2021/07/08 07:45:15;;;;;;;34.53;24.80;;;;;;;23.06;80.78;101218.44;1658474;86;25997;-78
2021/07/08 07:47:42;;;;;;;37.28;25.82;;;;;;;23.00;80.42;101223.56;1674617;84;25815;-78
2021/07/08 07:50:10;;;;;;;37.78;25.75;;;;;;;22.97;80.37;101226.78;1653821;85;27617;-78
2021/07/08 07:52:37;;;;;;;34.23;25.30;;;;;;;22.92;80.61;101229.47;1666372;85;26562;-78
2021/07/08 07:55:05;;;;;;;32.28;25.08;;;;;;;22.93;80.65;101231.94;1678437;84;25910;-78
2021/07/08 07:57:33;;;;;;;34.78;25.10;;;;;;;22.97;80.66;101228.15;1696849;83;25811;-78
2021/07/08 08:00:00;;;;;;;35.43;26.48;;;;;;;23.00;80.48;101231.23;1651923;84;26175;-79
2021/07/08 08:02:27;;;;;;;37.83;27.05;;;;;;;23.01;80.67;101230.66;1648288;84;28320;-78
2021/07/08 08:05:08;;;;;;;34.80;26.52;;;;;;;23.09;80.84;101228.88;1658397;84;25894;-78
2021/07/08 08:10:10;;;;;;;36.17;25.80;;;;;;;23.12;80.20;101223.45;1690151;83;26618;-78
2021/07/08 08:12:39;;;;;;;37.63;26.90;;;;;;;23.14;80.41;101222.09;1650780;84;25895;-78
2021/07/08 08:15:09;;;;;;;35.20;26.45;;;;;;;23.14;80.16;101220.72;1647718;84;27588;-78
2021/07/08 08:17:38;;;;;;;43.68;28.57;;;;;;;23.09;80.11;101222.05;1676204;84;25765;-78
2021/07/08 08:20:08;;;;;;;40.40;29.20;;;;;;;23.06;80.33;101223.91;1679688;83;25774;-79
2021/07/08 08:22:37;;;;;;;37.35;28.05;;;;;;;23.07;80.58;101231.57;1675346;83;25931;-79
2021/07/08 08:25:05;;;;;;;36.75;27.48;;;;;;;23.06;80.30;101228.00;1679743;83;26452;-79
2021/07/08 08:27:32;;;;;;;41.73;28.95;;;;;;;23.03;80.70;101219.50;1673218;84;27494;-79
2021/07/08 08:29:59;;;;;;;38.48;29.37;;;;;;;23.04;80.83;101223.34;1686342;83;26414;-78
2021/07/08 08:32:26;;;;;;;40.48;30.17;;;;;;;23.00;80.60;101220.30;1661404;83;25775;-78
2021/07/08 08:34:53;;;;;;;42.55;29.85;;;;;;;22.97;80.82;101220.79;1670830;83;25723;-79
2021/07/08 08:37:21;;;;;;;43.48;29.67;;;;;;;23.03;80.77;101214.03;1689647;83;26468;-79
2021/07/08 08:39:48;;;;;;;41.42;29.87;;;;;;;23.12;80.97;101220.72;1654860;83;27533;-79
2021/07/08 08:42:15;;;;;;;41.65;30.65;;;;;;;23.15;80.64;101219.66;1679113;83;25890;-78
2021/07/08 08:44:42;;;;;;;42.13;29.72;;;;;;;23.18;80.89;101223.23;1668237;84;25889;-77
2021/07/08 08:47:12;;;;;;;44.42;30.15;;;;;;;23.18;80.54;101217.77;1685352;83;26574;-77
2021/07/08 08:49:41;;;;;;;47.33;30.92;;;;;;;23.23;80.56;101221.10;1674934;83;26080;-77
2021/07/08 08:52:11;;;;;;;47.35;31.15;;;;;;;23.25;80.54;101217.57;1668927;83;27688;-77
2021/07/08 08:54:41;;;;;;;45.23;30.08;;;;;;;23.30;80.56;101208.91;1670756;83;25660;-77
2021/07/08 08:57:08;;;;;;;43.50;29.57;;;;;;;23.38;80.15;101213.95;1687431;83;25840;-76
2021/07/08 08:59:36;;;;;;;42.78;29.23;;;;;;;23.44;80.38;101210.72;1657209;83;25823;-78
2021/07/08 09:02:18;;;;;;;43.75;31.77;;;;;;;23.47;79.87;101209.69;1675510;83;25944;-77
2021/07/08 09:04:50;;;;;;;45.70;32.08;;;;;;;23.47;80.10;101201.48;1658159;83;27360;-77
2021/07/08 09:07:35;;;;;;;50.73;31.95;;;;;;;23.53;80.53;101203.19;1682404;83;25844;-77
2021/07/08 09:10:01;;;;;;;44.35;31.55;;;;;;;23.57;80.29;101206.22;1665063;83;26455;-77
2021/07/08 09:12:28;;;;;;;47.33;32.47;;;;;;;23.57;80.27;101207.05;1672045;84;26283;-77
2021/07/08 09:15:19;;;;;;;48.50;31.80;;;;;;;23.66;80.21;101200.58;1664060;83;25863;-78
2021/07/08 09:17:47;;;;;;;47.10;31.30;;;;;;;23.78;79.98;101196.33;1696533;83;27499;-78
2021/07/08 09:20:17;;;;;;;43.08;31.90;;;;;;;23.85;79.62;101206.49;1640762;84;25876;-79
2021/07/08 09:22:45;;;;;;;43.48;32.40;;;;;;;23.85;79.35;101196.92;1659775;84;34609;-79
2021/07/08 09:25:26;;;;;;;43.17;30.62;;;;;;;23.91;79.62;101194.53;1665857;84;26132;-78
2021/07/08 09:28:21;;;;;;;42.53;31.35;;;;;;;23.95;79.18;101188.25;1686518;84;25907;-77
2021/07/08 09:31:06;;;;;;;45.73;31.57;;;;;;;24.00;79.10;101189.67;1691415;84;27489;-79
2021/07/08 09:33:40;;;;;;;44.10;30.55;;;;;;;24.09;79.29;101191.42;1680129;84;25876;-79
2021/07/08 09:36:11;;;;;;;51.65;35.35;;;;;;;24.16;78.88;101190.67;1661617;84;25837;-79
2021/07/08 09:38:41;;;;;;;49.42;33.10;;;;;;;24.19;79.10;101196.44;1692681;83;25831;-79
2021/07/08 09:41:14;;;;;;;48.85;34.08;;;;;;;24.22;78.33;101194.55;1671984;84;26039;-79
2021/07/08 09:43:41;;;;;;;45.15;31.17;;;;;;;24.32;78.78;101184.20;1660615;84;28208;-79
2021/07/08 09:46:10;;;;;;;48.25;33.92;;;;;;;24.40;78.83;101190.58;1667744;84;26451;-79
2021/07/08 09:48:37;;;;;;;47.58;34.98;;;;;;;24.43;77.93;101184.56;1705143;83;25806;-79
2021/07/08 09:51:06;;;;;;;50.75;33.75;;;;;;;24.45;78.12;101189.23;1689822;83;26368;-79
2021/07/08 09:53:49;;;;;;;50.63;35.13;;;;;;;24.47;77.90;101191.16;1661205;84;25877;-80
2021/07/08 09:58:58;;;;;;;50.80;35.45;;;;;;;24.47;77.53;101195.27;1674345;84;25995;-79
2021/07/08 10:01:26;;;;;;;61.28;38.58;;;;;;;24.49;77.94;101183.50;1664037;85;26606;-79
2021/07/08 10:03:55;;;;;;;54.38;36.25;;;;;;;24.59;78.25;101189.06;1687709;84;26706;-79
2021/07/08 10:06:22;;;;;;;53.42;35.50;;;;;;;24.71;78.02;101188.84;1653934;84;25961;-79
2021/07/08 10:08:51;;;;;;;46.42;34.03;;;;;;;24.83;77.68;101186.77;1686616;84;27594;-79
2021/07/08 10:11:19;;;;;;;56.90;37.65;;;;;;;24.84;77.49;101177.44;1686835;83;26763;-78
2021/07/08 10:13:47;;;;;;;50.60;34.75;;;;;;;24.90;77.77;101178.56;1659586;84;25825;-78
2021/07/08 10:16:15;;;;;;;54.25;35.50;;;;;;;25.04;77.41;101192.62;1666929;84;26534;-78
2021/07/08 10:18:45;;;;;;;49.88;34.27;;;;;;;25.14;76.92;101183.05;1696248;83;25921;-78
2021/07/08 10:21:13;;;;;;;51.00;35.35;;;;;;;25.30;77.28;101178.45;1646060;84;27558;-79
2021/07/08 10:23:41;;;;;;;44.10;33.02;;;;;;;25.47;76.47;101180.45;1684204;84;25989;-79
2021/07/08 10:26:10;;;;;;;47.03;35.13;;;;;;;25.64;75.98;101187.31;1654285;84;26379;-79
2021/07/08 10:28:45;;;;;;;48.17;34.88;;;;;;;25.81;75.56;101175.54;1657541;85;26243;-78
2021/07/08 10:31:20;;;;;;;39.58;30.72;;;;;;;25.89;74.56;101174.19;1675679;84;26215;-79
2021/07/08 10:34:14;;;;;;;46.20;34.23;;;;;;;25.96;74.90;101169.26;1647290;84;27510;-78
2021/07/08 10:36:46;;;;;;;41.53;31.42;;;;;;;26.10;75.74;101164.88;1652536;85;25546;-79
2021/07/08 10:39:20;;;;;;;39.80;31.70;;;;;;;26.27;74.80;101165.95;1638753;84;25930;-79
2021/07/08 10:41:58;;;;;;;38.42;28.85;;;;;;;26.29;72.89;101163.75;1690357;84;26117;-79
2021/07/08 10:44:52;;;;;;;41.05;30.40;;;;;;;26.22;72.38;101165.41;1660482;85;25939;-78
2021/07/08 10:47:39;;;;;;;38.25;29.65;;;;;;;26.25;73.55;101156.63;1678154;84;27542;-79
2021/07/08 10:50:28;;;;;;;39.10;29.27;;;;;;;26.37;73.29;101146.16;1665710;85;26138;-79
2021/07/08 10:52:56;;;;;;;43.45;32.70;;;;;;;26.44;72.35;101142.58;1700005;83;25958;-78
2021/07/08 10:55:42;;;;;;;39.30;30.40;;;;;;;26.41;72.31;101140.95;1662235;84;25811;-80
2021/07/08 10:58:39;;;;;;;31.65;25.95;;;;;;;26.42;71.72;101138.46;1694243;83;25864;-79
2021/07/08 11:01:30;;;;;;;36.28;27.67;;;;;;;26.51;72.84;101140.91;1675477;84;27470;-79
2021/07/08 11:03:59;;;;;;;33.98;28.17;;;;;;;26.68;72.92;101144.16;1650958;84;26642;-79
2021/07/08 11:06:32;;;;;;;38.53;27.77;;;;;;;26.80;72.58;101139.73;1667100;84;25986;-78
2021/07/08 11:09:18;;;;;;;32.60;23.95;;;;;;;26.89;72.62;101140.80;1676749;84;25864;-79
2021/07/08 11:11:51;;;;;;;30.17;24.02;;;;;;;27.06;72.29;101139.90;1659984;85;25510;-79
2021/07/08 11:14:26;;;;;;;29.67;24.40;;;;;;;27.26;72.19;101141.18;1677518;84;27487;-79
2021/07/08 11:17:13;;;;;;;34.85;26.15;;;;;;;27.35;70.73;101143.06;1675435;84;25915;-78
2021/07/08 11:19:45;;;;;;;28.50;23.75;;;;;;;27.38;70.38;101141.13;1702679;83;25297;-79
2021/07/08 11:22:27;;;;;;;29.32;24.92;;;;;;;27.44;70.24;101136.41;1663495;83;25818;-79
2021/07/08 11:24:55;;;;;;;29.82;24.30;;;;;;;27.42;68.32;101140.83;1683519;83;26488;-79